Terminal Aerodrome Forecast
Issued by NWS Cleveland, OH

Home | Current Version | Previous Version | Graphics & Text | Print | Product List | Glossary On
Versions: 1 2 3 4 5 6 7 8 9 10 11 12 13 14 15 16 17 18 19 20 21 22 23
331
FTUS41 KCLE 112330
TAFYNG
TAF
KYNG 112330Z 1200/1224 28007KT P6SM SCT025 OVC035
      TEMPO 1200/1204 3SM -SHSN OVC025
     FM121100 21005KT P6SM BKN100
     FM121500 23012KT P6SM SCT035 OVC100
     FM122100 25014G20KT 4SM -SHSN OVC030=

USA.gov is the U.S. government's official web portal to all federal, state and local government web resources and services.